Owens Cross Roads, AL (35763)

10:57 AM CST on February 28, 2015 (GMT -0600)
Inspiration on Green Mountain | Change Station
CLOSE
Current Station
Personal Weather Station
Location: Huntsville, AL
Elevation: 1460 ft
Nearby Weather Stations

Elev 1460 ft 34.61 °N, 86.51 °W | Updated 4 minutes ago

Partly Cloudy
Partly Cloudy
45.7 °F
Feels Like 46 °F
N
1.7
Wind Variable Wind from WSW

Today
High -- | Low -- °F
--% Chance of Precip.
Yesterday
High -- | Low -- °F
Precip. -- in
6:16 AM 5:40 PM
Waxing Gibbous, 78% visible
Pressure 30.55 in
Visibility 10.0 miles
Clouds Mostly Cloudy 13000 ft
Windchill 46 °F
Dew Point 28 °F
Humidity 49%
Rainfall 0.02 in
Snow Depth Not available.
UV 3 out of 12
Pollen 5.90 out of 12
Air Quality Not available.
Flu Activity Not available.
METAR KHUA 281558Z AUTO 14006KT 10SM BKN130 05/M03 A3053 RMK AO2 SLP345 T00471033

More Conditions Fewer Conditions

Pressure 30.55 in
Visibility 10.0 miles
Clouds Mostly Cloudy 13000 ft
Windchill 46 °F
Dew Point 28 °F
Humidity 49%
Rainfall 0.02 in
Snow Depth Not available.
UV 3 out of 12
Pollen 5.90 out of 12
Air Quality Not available.
Flu Activity Not available.
METAR KHUA 281558Z AUTO 14006KT 10SM BKN130 05/M03 A3053 RMK AO2 SLP345 T00471033

More Conditions Fewer Conditions

10-Day Weather Forecast

Almanac

Astronomy

Feb. 28, 2015 Rise Set
Actual Time
Civil Twilight
Nautical Twilight
Astronomical Twilight
Moon
Length of Visible Light
Length of Day
Tomorrow will be .
, % of the Moon is Illuminated

Today's Extremes

State Highs State Lows

Community

WunderPhotos

Upload Photos

1,801,081 photos uploaded!

WunderBlogs® & News

Nearby

Air Quality

  Air Quality AQ Index Pollutant
Not available.

Snow Depth

Station Depth Elevation

Earthquake Activity

City Distance Mag. Time & Date
Minimum magnitude displayed is 2.5.

Coastal Water Temperatures

Place Temperature

Nearby Weather Stations